sensor_id;sensor_type;location;lat;lon;timestamp;P1;durP1;ratioP1;P2;durP2;ratioP2
11671;SDS011;5892;43.412;24.612;2023-05-10T00:01:34;8.87;;;7.97;;
11671;SDS011;5892;43.412;24.612;2023-05-10T00:04:01;9.17;;;7.97;;
11671;SDS011;5892;43.412;24.612;2023-05-10T00:06:28;8.40;;;7.37;;
11671;SDS011;5892;43.412;24.612;2023-05-10T00:08:55;8.83;;;7.20;;
11671;SDS011;5892;43.412;24.612;2023-05-10T00:11:23;9.13;;;7.20;;
11671;SDS011;5892;43.412;24.612;2023-05-10T00:13:50;9.40;;;7.87;;
11671;SDS011;5892;43.412;24.612;2023-05-10T00:16:17;8.67;;;7.73;;
11671;SDS011;5892;43.412;24.612;2023-05-10T00:18:44;8.50;;;7.53;;
11671;SDS011;5892;43.412;24.612;2023-05-10T00:21:10;9.07;;;7.20;;
11671;SDS011;5892;43.412;24.612;2023-05-10T00:23:38;11.57;;;7.73;;
11671;SDS011;5892;43.412;24.612;2023-05-10T00:26:05;8.83;;;7.93;;
11671;SDS011;5892;43.412;24.612;2023-05-10T00:28:33;11.00;;;8.77;;
11671;SDS011;5892;43.412;24.612;2023-05-10T00:31:00;17.17;;;10.03;;
11671;SDS011;5892;43.412;24.612;2023-05-10T00:33:27;15.73;;;9.47;;
11671;SDS011;5892;43.412;24.612;2023-05-10T00:35:53;9.30;;;8.10;;
11671;SDS011;5892;43.412;24.612;2023-05-10T00:38:20;11.03;;;8.50;;
11671;SDS011;5892;43.412;24.612;2023-05-10T00:40:47;10.73;;;7.73;;
11671;SDS011;5892;43.412;24.612;2023-05-10T00:43:14;8.37;;;7.57;;
11671;SDS011;5892;43.412;24.612;2023-05-10T00:45:42;8.67;;;7.80;;
11671;SDS011;5892;43.412;24.612;2023-05-10T00:48:09;8.80;;;7.90;;
11671;SDS011;5892;43.412;24.612;2023-05-10T00:50:36;10.87;;;8.07;;
11671;SDS011;5892;43.412;24.612;2023-05-10T00:53:03;9.00;;;8.10;;
11671;SDS011;5892;43.412;24.612;2023-05-10T00:55:30;9.87;;;7.77;;
11671;SDS011;5892;43.412;24.612;2023-05-10T00:57:57;9.13;;;7.90;;
11671;SDS011;5892;43.412;24.612;2023-05-10T01:00:24;9.20;;;8.30;;
11671;SDS011;5892;43.412;24.612;2023-05-10T01:02:53;8.73;;;7.83;;
11671;SDS011;5892;43.412;24.612;2023-05-10T01:05:20;14.73;;;10.43;;
11671;SDS011;5892;43.412;24.612;2023-05-10T01:07:47;10.73;;;8.00;;
11671;SDS011;5892;43.412;24.612;2023-05-10T01:10:14;8.73;;;7.83;;
11671;SDS011;5892;43.412;24.612;2023-05-10T01:12:42;10.30;;;8.13;;
11671;SDS011;5892;43.412;24.612;2023-05-10T01:15:11;16.43;;;10.57;;
11671;SDS011;5892;43.412;24.612;2023-05-10T01:17:40;9.10;;;8.10;;
11671;SDS011;5892;43.412;24.612;2023-05-10T01:20:11;12.43;;;9.47;;
11671;SDS011;5892;43.412;24.612;2023-05-10T01:22:59;12.83;;;9.03;;
11671;SDS011;5892;43.412;24.612;2023-05-10T01:32:02;10.73;;;8.67;;
11671;SDS011;5892;43.412;24.612;2023-05-10T01:34:44;11.07;;;8.57;;
11671;SDS011;5892;43.412;24.612;2023-05-10T01:37:20;10.73;;;8.47;;
11671;SDS011;5892;43.412;24.612;2023-05-10T01:39:53;11.43;;;8.50;;
11671;SDS011;5892;43.412;24.612;2023-05-10T01:42:25;9.97;;;8.27;;
11671;SDS011;5892;43.412;24.612;2023-05-10T01:44:58;14.23;;;8.63;;
11671;SDS011;5892;43.412;24.612;2023-05-10T01:47:34;9.53;;;7.73;;
11671;SDS011;5892;43.412;24.612;2023-05-10T01:50:05;9.43;;;8.00;;
11671;SDS011;5892;43.412;24.612;2023-05-10T01:52:36;11.50;;;8.77;;
11671;SDS011;5892;43.412;24.612;2023-05-10T01:55:09;10.23;;;8.20;;
11671;SDS011;5892;43.412;24.612;2023-05-10T01:57:40;10.40;;;7.93;;
11671;SDS011;5892;43.412;24.612;2023-05-10T02:00:10;10.40;;;7.97;;
11671;SDS011;5892;43.412;24.612;2023-05-10T02:02:42;12.20;;;8.50;;
11671;SDS011;5892;43.412;24.612;2023-05-10T02:05:12;8.40;;;7.47;;
11671;SDS011;5892;43.412;24.612;2023-05-10T02:07:39;16.57;;;9.80;;
11671;SDS011;5892;43.412;24.612;2023-05-10T02:10:09;9.33;;;7.23;;
11671;SDS011;5892;43.412;24.612;2023-05-10T02:12:37;19.00;;;10.10;;
11671;SDS011;5892;43.412;24.612;2023-05-10T02:15:07;7.73;;;6.57;;
11671;SDS011;5892;43.412;24.612;2023-05-10T02:17:37;16.87;;;9.17;;
11671;SDS011;5892;43.412;24.612;2023-05-10T02:20:07;10.73;;;7.10;;
11671;SDS011;5892;43.412;24.612;2023-05-10T02:22:35;9.93;;;8.57;;
11671;SDS011;5892;43.412;24.612;2023-05-10T02:25:03;10.27;;;7.07;;
11671;SDS011;5892;43.412;24.612;2023-05-10T02:27:32;13.13;;;7.03;;
11671;SDS011;5892;43.412;24.612;2023-05-10T02:30:01;9.67;;;6.40;;
11671;SDS011;5892;43.412;24.612;2023-05-10T02:32:28;11.23;;;6.83;;
11671;SDS011;5892;43.412;24.612;2023-05-10T02:34:56;10.40;;;7.13;;
11671;SDS011;5892;43.412;24.612;2023-05-10T02:37:26;7.30;;;6.40;;
11671;SDS011;5892;43.412;24.612;2023-05-10T02:39:53;7.37;;;6.60;;
11671;SDS011;5892;43.412;24.612;2023-05-10T02:42:23;6.97;;;5.93;;
11671;SDS011;5892;43.412;24.612;2023-05-10T02:44:53;8.53;;;6.63;;
11671;SDS011;5892;43.412;24.612;2023-05-10T02:47:25;11.80;;;7.93;;
11671;SDS011;5892;43.412;24.612;2023-05-10T02:49:52;7.70;;;6.47;;
11671;SDS011;5892;43.412;24.612;2023-05-10T02:52:21;12.33;;;7.30;;
11671;SDS011;5892;43.412;24.612;2023-05-10T02:54:54;10.80;;;6.57;;
11671;SDS011;5892;43.412;24.612;2023-05-10T02:57:25;11.77;;;6.80;;
11671;SDS011;5892;43.412;24.612;2023-05-10T02:59:54;9.63;;;6.53;;
11671;SDS011;5892;43.412;24.612;2023-05-10T03:02:21;6.73;;;5.80;;
11671;SDS011;5892;43.412;24.612;2023-05-10T03:04:48;11.97;;;8.37;;
11671;SDS011;5892;43.412;24.612;2023-05-10T03:07:15;8.50;;;5.93;;
11671;SDS011;5892;43.412;24.612;2023-05-10T03:09:44;7.23;;;5.63;;
11671;SDS011;5892;43.412;24.612;2023-05-10T03:12:14;7.27;;;6.07;;
11671;SDS011;5892;43.412;24.612;2023-05-10T03:14:49;6.90;;;5.80;;
11671;SDS011;5892;43.412;24.612;2023-05-10T03:17:25;10.63;;;6.00;;
11671;SDS011;5892;43.412;24.612;2023-05-10T03:19:57;8.07;;;5.47;;
11671;SDS011;5892;43.412;24.612;2023-05-10T03:22:30;6.70;;;5.40;;
11671;SDS011;5892;43.412;24.612;2023-05-10T03:25:00;7.00;;;5.37;;
11671;SDS011;5892;43.412;24.612;2023-05-10T03:27:34;7.20;;;5.03;;
11671;SDS011;5892;43.412;24.612;2023-05-10T03:30:03;7.27;;;5.77;;
11671;SDS011;5892;43.412;24.612;2023-05-10T03:32:31;8.37;;;4.87;;
11671;SDS011;5892;43.412;24.612;2023-05-10T03:34:59;6.73;;;5.60;;
11671;SDS011;5892;43.412;24.612;2023-05-10T03:37:26;7.63;;;4.53;;
11671;SDS011;5892;43.412;24.612;2023-05-10T03:39:53;11.93;;;5.83;;
11671;SDS011;5892;43.412;24.612;2023-05-10T03:42:20;5.37;;;4.60;;
11671;SDS011;5892;43.412;24.612;2023-05-10T03:44:48;6.97;;;4.50;;
11671;SDS011;5892;43.412;24.612;2023-05-10T03:47:15;10.17;;;5.53;;
11671;SDS011;5892;43.412;24.612;2023-05-10T03:49:42;8.37;;;4.50;;
11671;SDS011;5892;43.412;24.612;2023-05-10T03:52:09;8.40;;;5.00;;
11671;SDS011;5892;43.412;24.612;2023-05-10T03:54:36;6.13;;;5.37;;
11671;SDS011;5892;43.412;24.612;2023-05-10T03:57:02;7.23;;;4.63;;
11671;SDS011;5892;43.412;24.612;2023-05-10T03:59:29;9.50;;;4.23;;
11671;SDS011;5892;43.412;24.612;2023-05-10T04:01:58;5.97;;;4.17;;
11671;SDS011;5892;43.412;24.612;2023-05-10T04:04:24;5.60;;;4.23;;
11671;SDS011;5892;43.412;24.612;2023-05-10T04:06:51;7.17;;;4.50;;
11671;SDS011;5892;43.412;24.612;2023-05-10T04:09:18;5.10;;;4.00;;
11671;SDS011;5892;43.412;24.612;2023-05-10T04:11:45;6.30;;;4.70;;
11671;SDS011;5892;43.412;24.612;2023-05-10T04:14:12;6.10;;;4.17;;
11671;SDS011;5892;43.412;24.612;2023-05-10T04:16:39;7.43;;;4.20;;
11671;SDS011;5892;43.412;24.612;2023-05-10T04:19:07;5.97;;;4.30;;
11671;SDS011;5892;43.412;24.612;2023-05-10T04:21:34;5.10;;;4.43;;
11671;SDS011;5892;43.412;24.612;2023-05-10T04:24:00;6.37;;;4.47;;
11671;SDS011;5892;43.412;24.612;2023-05-10T04:26:27;5.10;;;3.83;;
11671;SDS011;5892;43.412;24.612;2023-05-10T04:28:54;5.63;;;4.50;;
11671;SDS011;5892;43.412;24.612;2023-05-10T04:31:21;7.47;;;4.20;;
11671;SDS011;5892;43.412;24.612;2023-05-10T04:33:48;6.87;;;4.53;;
11671;SDS011;5892;43.412;24.612;2023-05-10T04:36:17;7.47;;;4.53;;
11671;SDS011;5892;43.412;24.612;2023-05-10T04:38:44;6.27;;;3.73;;
11671;SDS011;5892;43.412;24.612;2023-05-10T04:41:10;7.93;;;4.70;;
11671;SDS011;5892;43.412;24.612;2023-05-10T04:43:37;6.70;;;4.57;;
11671;SDS011;5892;43.412;24.612;2023-05-10T04:46:04;5.73;;;3.90;;
11671;SDS011;5892;43.412;24.612;2023-05-10T04:48:32;5.97;;;4.40;;
11671;SDS011;5892;43.412;24.612;2023-05-10T04:50:59;7.67;;;4.37;;
11671;SDS011;5892;43.412;24.612;2023-05-10T04:53:27;6.53;;;4.50;;
11671;SDS011;5892;43.412;24.612;2023-05-10T04:55:54;5.23;;;3.90;;
11671;SDS011;5892;43.412;24.612;2023-05-10T04:58:21;7.70;;;4.43;;
11671;SDS011;5892;43.412;24.612;2023-05-10T05:00:48;5.13;;;4.00;;
11671;SDS011;5892;43.412;24.612;2023-05-10T05:03:15;8.93;;;4.53;;
11671;SDS011;5892;43.412;24.612;2023-05-10T05:05:41;5.37;;;4.10;;
11671;SDS011;5892;43.412;24.612;2023-05-10T05:08:09;5.37;;;3.73;;
11671;SDS011;5892;43.412;24.612;2023-05-10T05:10:37;9.10;;;4.20;;
11671;SDS011;5892;43.412;24.612;2023-05-10T05:13:04;6.80;;;4.00;;
11671;SDS011;5892;43.412;24.612;2023-05-10T05:15:31;6.33;;;4.63;;
11671;SDS011;5892;43.412;24.612;2023-05-10T05:17:58;5.37;;;3.90;;
11671;SDS011;5892;43.412;24.612;2023-05-10T05:20:25;4.40;;;3.77;;
11671;SDS011;5892;43.412;24.612;2023-05-10T05:22:52;5.50;;;4.10;;
11671;SDS011;5892;43.412;24.612;2023-05-10T05:25:18;4.73;;;3.93;;
11671;SDS011;5892;43.412;24.612;2023-05-10T05:27:47;5.60;;;4.23;;
11671;SDS011;5892;43.412;24.612;2023-05-10T05:30:13;9.83;;;5.57;;
11671;SDS011;5892;43.412;24.612;2023-05-10T05:32:40;8.43;;;5.53;;
11671;SDS011;5892;43.412;24.612;2023-05-10T05:35:07;4.10;;;3.70;;
11671;SDS011;5892;43.412;24.612;2023-05-10T05:37:34;5.93;;;4.07;;
11671;SDS011;5892;43.412;24.612;2023-05-10T05:40:02;5.13;;;3.90;;
11671;SDS011;5892;43.412;24.612;2023-05-10T05:42:30;6.90;;;4.07;;
11671;SDS011;5892;43.412;24.612;2023-05-10T05:44:59;6.67;;;3.60;;
11671;SDS011;5892;43.412;24.612;2023-05-10T05:47:25;4.23;;;3.60;;
11671;SDS011;5892;43.412;24.612;2023-05-10T05:49:52;7.77;;;3.70;;
11671;SDS011;5892;43.412;24.612;2023-05-10T05:52:20;4.43;;;3.70;;
11671;SDS011;5892;43.412;24.612;2023-05-10T05:54:47;4.47;;;3.93;;
11671;SDS011;5892;43.412;24.612;2023-05-10T05:57:14;5.10;;;3.77;;
11671;SDS011;5892;43.412;24.612;2023-05-10T05:59:41;4.17;;;3.70;;
11671;SDS011;5892;43.412;24.612;2023-05-10T06:02:10;8.20;;;5.07;;
11671;SDS011;5892;43.412;24.612;2023-05-10T06:04:37;5.23;;;2.97;;
11671;SDS011;5892;43.412;24.612;2023-05-10T06:07:04;7.27;;;4.23;;
11671;SDS011;5892;43.412;24.612;2023-05-10T06:09:30;5.50;;;3.57;;
11671;SDS011;5892;43.412;24.612;2023-05-10T06:11:57;4.40;;;3.50;;
11671;SDS011;5892;43.412;24.612;2023-05-10T06:14:24;9.13;;;3.50;;
11671;SDS011;5892;43.412;24.612;2023-05-10T06:16:51;3.77;;;3.30;;
11671;SDS011;5892;43.412;24.612;2023-05-10T06:19:19;4.57;;;3.50;;
11671;SDS011;5892;43.412;24.612;2023-05-10T06:21:46;6.77;;;3.60;;
11671;SDS011;5892;43.412;24.612;2023-05-10T06:24:13;4.43;;;2.90;;
11671;SDS011;5892;43.412;24.612;2023-05-10T06:26:40;4.83;;;3.17;;
11671;SDS011;5892;43.412;24.612;2023-05-10T06:29:06;6.87;;;3.17;;
11671;SDS011;5892;43.412;24.612;2023-05-10T06:31:33;3.47;;;3.07;;
11671;SDS011;5892;43.412;24.612;2023-05-10T06:34:00;5.30;;;3.50;;
11671;SDS011;5892;43.412;24.612;2023-05-10T06:36:28;5.40;;;3.40;;
11671;SDS011;5892;43.412;24.612;2023-05-10T06:38:55;2.90;;;2.60;;
11671;SDS011;5892;43.412;24.612;2023-05-10T06:41:22;4.57;;;3.13;;
11671;SDS011;5892;43.412;24.612;2023-05-10T06:43:49;4.23;;;2.93;;
11671;SDS011;5892;43.412;24.612;2023-05-10T06:46:16;3.23;;;2.73;;
11671;SDS011;5892;43.412;24.612;2023-05-10T06:48:43;5.60;;;2.73;;
11671;SDS011;5892;43.412;24.612;2023-05-10T06:51:09;3.17;;;2.87;;
11671;SDS011;5892;43.412;24.612;2023-05-10T06:53:38;5.43;;;2.70;;
11671;SDS011;5892;43.412;24.612;2023-05-10T06:56:05;4.57;;;3.03;;
11671;SDS011;5892;43.412;24.612;2023-05-10T06:58:32;2.80;;;2.60;;
11671;SDS011;5892;43.412;24.612;2023-05-10T07:01:02;3.53;;;2.73;;
11671;SDS011;5892;43.412;24.612;2023-05-10T07:03:29;5.47;;;2.87;;
11671;SDS011;5892;43.412;24.612;2023-05-10T07:05:59;5.77;;;2.70;;
11671;SDS011;5892;43.412;24.612;2023-05-10T07:08:28;3.77;;;2.80;;
11671;SDS011;5892;43.412;24.612;2023-05-10T07:11:00;4.30;;;2.80;;
11671;SDS011;5892;43.412;24.612;2023-05-10T07:13:28;4.77;;;3.17;;
11671;SDS011;5892;43.412;24.612;2023-05-10T07:15:56;3.50;;;2.60;;
11671;SDS011;5892;43.412;24.612;2023-05-10T07:18:23;4.87;;;2.90;;
11671;SDS011;5892;43.412;24.612;2023-05-10T07:20:50;5.97;;;3.00;;
11671;SDS011;5892;43.412;24.612;2023-05-10T07:23:17;5.57;;;2.90;;
11671;SDS011;5892;43.412;24.612;2023-05-10T07:25:44;4.23;;;2.60;;
11671;SDS011;5892;43.412;24.612;2023-05-10T07:28:13;2.50;;;2.30;;
11671;SDS011;5892;43.412;24.612;2023-05-10T07:30:41;4.07;;;2.60;;
11671;SDS011;5892;43.412;24.612;2023-05-10T07:33:09;3.53;;;2.70;;
11671;SDS011;5892;43.412;24.612;2023-05-10T07:35:37;3.00;;;2.07;;
11671;SDS011;5892;43.412;24.612;2023-05-10T07:38:04;3.27;;;2.20;;
11671;SDS011;5892;43.412;24.612;2023-05-10T07:40:31;3.13;;;2.23;;
11671;SDS011;5892;43.412;24.612;2023-05-10T07:42:58;3.27;;;2.40;;
11671;SDS011;5892;43.412;24.612;2023-05-10T07:45:28;4.37;;;2.83;;
11671;SDS011;5892;43.412;24.612;2023-05-10T07:47:55;5.30;;;2.63;;
11671;SDS011;5892;43.412;24.612;2023-05-10T07:50:21;3.23;;;2.40;;
11671;SDS011;5892;43.412;24.612;2023-05-10T07:52:48;6.40;;;2.70;;
11671;SDS011;5892;43.412;24.612;2023-05-10T07:55:15;4.40;;;3.10;;
11671;SDS011;5892;43.412;24.612;2023-05-10T07:57:44;5.67;;;2.40;;
11671;SDS011;5892;43.412;24.612;2023-05-10T08:00:12;2.80;;;2.50;;
11671;SDS011;5892;43.412;24.612;2023-05-10T08:02:44;4.73;;;2.97;;
11671;SDS011;5892;43.412;24.612;2023-05-10T08:05:11;7.07;;;3.03;;
11671;SDS011;5892;43.412;24.612;2023-05-10T08:07:38;2.50;;;2.30;;
11671;SDS011;5892;43.412;24.612;2023-05-10T08:10:05;3.00;;;2.33;;
11671;SDS011;5892;43.412;24.612;2023-05-10T08:12:33;3.10;;;2.00;;
11671;SDS011;5892;43.412;24.612;2023-05-10T08:15:00;4.93;;;2.53;;
11671;SDS011;5892;43.412;24.612;2023-05-10T08:17:27;4.00;;;2.30;;
11671;SDS011;5892;43.412;24.612;2023-05-10T08:19:55;4.50;;;2.60;;
11671;SDS011;5892;43.412;24.612;2023-05-10T08:22:22;1.93;;;1.83;;
11671;SDS011;5892;43.412;24.612;2023-05-10T08:24:49;2.67;;;2.20;;
11671;SDS011;5892;43.412;24.612;2023-05-10T08:27:16;2.97;;;2.40;;
11671;SDS011;5892;43.412;24.612;2023-05-10T08:29:43;3.13;;;2.40;;
11671;SDS011;5892;43.412;24.612;2023-05-10T08:32:09;3.63;;;2.20;;
11671;SDS011;5892;43.412;24.612;2023-05-10T08:34:36;2.63;;;2.10;;
11671;SDS011;5892;43.412;24.612;2023-05-10T08:37:04;2.33;;;2.13;;
11671;SDS011;5892;43.412;24.612;2023-05-10T08:39:33;3.37;;;1.97;;
11671;SDS011;5892;43.412;24.612;2023-05-10T08:42:01;4.73;;;2.17;;
11671;SDS011;5892;43.412;24.612;2023-05-10T08:44:30;5.00;;;2.00;;
11671;SDS011;5892;43.412;24.612;2023-05-10T08:46:58;5.60;;;2.40;;
11671;SDS011;5892;43.412;24.612;2023-05-10T08:49:30;2.47;;;2.17;;
11671;SDS011;5892;43.412;24.612;2023-05-10T08:51:58;2.97;;;1.97;;
11671;SDS011;5892;43.412;24.612;2023-05-10T08:54:29;8.60;;;2.40;;
11671;SDS011;5892;43.412;24.612;2023-05-10T08:56:58;4.07;;;2.70;;
11671;SDS011;5892;43.412;24.612;2023-05-10T08:59:25;4.57;;;2.20;;
11671;SDS011;5892;43.412;24.612;2023-05-10T09:01:52;6.67;;;2.73;;
11671;SDS011;5892;43.412;24.612;2023-05-10T09:04:20;5.10;;;3.10;;
11671;SDS011;5892;43.412;24.612;2023-05-10T09:06:47;4.37;;;2.60;;
11671;SDS011;5892;43.412;24.612;2023-05-10T09:09:14;4.17;;;2.40;;
11671;SDS011;5892;43.412;24.612;2023-05-10T09:11:43;2.17;;;1.97;;
11671;SDS011;5892;43.412;24.612;2023-05-10T09:14:10;2.57;;;2.10;;
11671;SDS011;5892;43.412;24.612;2023-05-10T09:16:39;3.00;;;2.10;;
11671;SDS011;5892;43.412;24.612;2023-05-10T09:19:07;2.20;;;2.00;;
11671;SDS011;5892;43.412;24.612;2023-05-10T09:21:35;2.77;;;1.87;;
11671;SDS011;5892;43.412;24.612;2023-05-10T09:24:03;2.57;;;2.17;;
11671;SDS011;5892;43.412;24.612;2023-05-10T09:26:31;2.20;;;2.00;;
11671;SDS011;5892;43.412;24.612;2023-05-10T09:28:59;3.13;;;2.20;;
11671;SDS011;5892;43.412;24.612;2023-05-10T09:34:11;2.23;;;1.80;;
11671;SDS011;5892;43.412;24.612;2023-05-10T09:36:52;2.93;;;1.90;;
11671;SDS011;5892;43.412;24.612;2023-05-10T09:39:20;3.00;;;1.97;;
11671;SDS011;5892;43.412;24.612;2023-05-10T09:41:47;2.50;;;1.70;;
11671;SDS011;5892;43.412;24.612;2023-05-10T09:44:17;5.20;;;2.20;;
11671;SDS011;5892;43.412;24.612;2023-05-10T09:46:48;2.23;;;2.03;;
11671;SDS011;5892;43.412;24.612;2023-05-10T09:49:17;2.37;;;1.60;;
11671;SDS011;5892;43.412;24.612;2023-05-10T09:51:44;5.63;;;3.13;;
11671;SDS011;5892;43.412;24.612;2023-05-10T09:54:12;3.60;;;1.90;;
11671;SDS011;5892;43.412;24.612;2023-05-10T09:56:40;4.63;;;2.90;;
11671;SDS011;5892;43.412;24.612;2023-05-10T09:59:09;3.80;;;2.23;;
11671;SDS011;5892;43.412;24.612;2023-05-10T10:01:38;4.53;;;1.97;;
11671;SDS011;5892;43.412;24.612;2023-05-10T10:04:06;5.63;;;3.10;;
11671;SDS011;5892;43.412;24.612;2023-05-10T10:06:35;2.53;;;1.80;;
11671;SDS011;5892;43.412;24.612;2023-05-10T10:09:03;3.90;;;2.20;;
11671;SDS011;5892;43.412;24.612;2023-05-10T10:11:30;3.23;;;2.10;;
11671;SDS011;5892;43.412;24.612;2023-05-10T10:13:57;2.27;;;1.73;;
11671;SDS011;5892;43.412;24.612;2023-05-10T10:16:24;3.07;;;1.57;;
11671;SDS011;5892;43.412;24.612;2023-05-10T10:18:54;3.73;;;1.80;;
11671;SDS011;5892;43.412;24.612;2023-05-10T10:21:21;4.17;;;2.10;;
11671;SDS011;5892;43.412;24.612;2023-05-10T10:23:48;3.13;;;2.00;;
11671;SDS011;5892;43.412;24.612;2023-05-10T10:26:16;2.00;;;1.70;;
11671;SDS011;5892;43.412;24.612;2023-05-10T10:28:47;4.17;;;1.90;;
11671;SDS011;5892;43.412;24.612;2023-05-10T10:31:24;3.67;;;2.00;;
11671;SDS011;5892;43.412;24.612;2023-05-10T10:34:03;2.10;;;1.60;;
11671;SDS011;5892;43.412;24.612;2023-05-10T10:36:33;2.13;;;1.70;;
11671;SDS011;5892;43.412;24.612;2023-05-10T10:39:08;1.90;;;1.67;;
11671;SDS011;5892;43.412;24.612;2023-05-10T10:41:36;1.83;;;1.70;;
11671;SDS011;5892;43.412;24.612;2023-05-10T10:47:08;2.03;;;1.80;;
11671;SDS011;5892;43.412;24.612;2023-05-10T10:50:03;2.27;;;1.90;;
11671;SDS011;5892;43.412;24.612;2023-05-10T10:52:32;1.60;;;1.50;;
11671;SDS011;5892;43.412;24.612;2023-05-10T10:55:00;2.03;;;1.50;;
11671;SDS011;5892;43.412;24.612;2023-05-10T10:57:31;1.60;;;1.50;;
11671;SDS011;5892;43.412;24.612;2023-05-10T11:02:53;2.53;;;1.47;;
11671;SDS011;5892;43.412;24.612;2023-05-10T11:05:33;1.70;;;1.60;;
11671;SDS011;5892;43.412;24.612;2023-05-10T11:08:09;1.40;;;1.30;;
11671;SDS011;5892;43.412;24.612;2023-05-10T11:10:38;3.23;;;1.70;;
11671;SDS011;5892;43.412;24.612;2023-05-10T11:13:06;1.63;;;1.50;;
11671;SDS011;5892;43.412;24.612;2023-05-10T11:15:34;3.23;;;1.90;;
11671;SDS011;5892;43.412;24.612;2023-05-10T11:18:16;5.43;;;1.80;;
11671;SDS011;5892;43.412;24.612;2023-05-10T11:20:46;1.70;;;1.53;;
11671;SDS011;5892;43.412;24.612;2023-05-10T11:23:17;7.03;;;3.03;;
11671;SDS011;5892;43.412;24.612;2023-05-10T11:25:45;11.60;;;4.67;;
11671;SDS011;5892;43.412;24.612;2023-05-10T11:28:12;2.13;;;1.60;;
11671;SDS011;5892;43.412;24.612;2023-05-10T11:30:39;1.53;;;1.43;;
11671;SDS011;5892;43.412;24.612;2023-05-10T11:33:07;1.67;;;1.57;;
11671;SDS011;5892;43.412;24.612;2023-05-10T11:35:37;5.10;;;1.73;;
11671;SDS011;5892;43.412;24.612;2023-05-10T11:38:07;3.50;;;1.50;;
11671;SDS011;5892;43.412;24.612;2023-05-10T11:40:34;1.43;;;1.33;;
11671;SDS011;5892;43.412;24.612;2023-05-10T11:43:02;2.77;;;1.60;;
11671;SDS011;5892;43.412;24.612;2023-05-10T11:45:31;1.97;;;1.87;;
11671;SDS011;5892;43.412;24.612;2023-05-10T11:47:58;1.50;;;1.40;;
11671;SDS011;5892;43.412;24.612;2023-05-10T11:50:25;1.60;;;1.50;;
11671;SDS011;5892;43.412;24.612;2023-05-10T11:52:53;3.57;;;1.50;;
11671;SDS011;5892;43.412;24.612;2023-05-10T11:55:22;1.50;;;1.40;;
11671;SDS011;5892;43.412;24.612;2023-05-10T11:57:51;1.40;;;1.30;;
11671;SDS011;5892;43.412;24.612;2023-05-10T12:00:18;2.43;;;1.60;;
11671;SDS011;5892;43.412;24.612;2023-05-10T12:02:46;2.03;;;1.50;;
11671;SDS011;5892;43.412;24.612;2023-05-10T12:05:13;1.73;;;1.33;;
11671;SDS011;5892;43.412;24.612;2023-05-10T12:07:40;2.40;;;1.53;;
11671;SDS011;5892;43.412;24.612;2023-05-10T12:10:07;1.63;;;1.43;;
11671;SDS011;5892;43.412;24.612;2023-05-10T12:12:39;1.50;;;1.40;;
11671;SDS011;5892;43.412;24.612;2023-05-10T12:15:10;1.63;;;1.40;;
11671;SDS011;5892;43.412;24.612;2023-05-10T12:17:38;4.63;;;1.87;;
11671;SDS011;5892;43.412;24.612;2023-05-10T12:20:15;1.83;;;1.50;;
11671;SDS011;5892;43.412;24.612;2023-05-10T12:22:44;2.40;;;1.80;;
11671;SDS011;5892;43.412;24.612;2023-05-10T12:25:12;1.57;;;1.47;;
11671;SDS011;5892;43.412;24.612;2023-05-10T12:27:40;1.57;;;1.47;;
11671;SDS011;5892;43.412;24.612;2023-05-10T12:30:08;5.40;;;2.83;;
11671;SDS011;5892;43.412;24.612;2023-05-10T12:32:39;1.63;;;1.40;;
11671;SDS011;5892;43.412;24.612;2023-05-10T12:35:06;1.43;;;1.33;;
11671;SDS011;5892;43.412;24.612;2023-05-10T12:37:34;2.77;;;1.40;;
11671;SDS011;5892;43.412;24.612;2023-05-10T12:40:05;5.07;;;2.43;;
11671;SDS011;5892;43.412;24.612;2023-05-10T12:42:34;4.13;;;2.23;;
11671;SDS011;5892;43.412;24.612;2023-05-10T12:45:03;1.50;;;1.40;;
11671;SDS011;5892;43.412;24.612;2023-05-10T12:47:30;1.93;;;1.43;;
11671;SDS011;5892;43.412;24.612;2023-05-10T12:49:57;3.07;;;1.50;;
11671;SDS011;5892;43.412;24.612;2023-05-10T12:52:25;1.73;;;1.57;;
11671;SDS011;5892;43.412;24.612;2023-05-10T12:54:52;2.10;;;1.40;;
11671;SDS011;5892;43.412;24.612;2023-05-10T12:57:19;1.70;;;1.60;;
11671;SDS011;5892;43.412;24.612;2023-05-10T12:59:46;2.20;;;1.50;;
11671;SDS011;5892;43.412;24.612;2023-05-10T13:02:15;2.07;;;1.30;;
11671;SDS011;5892;43.412;24.612;2023-05-10T13:04:43;1.50;;;1.40;;
11671;SDS011;5892;43.412;24.612;2023-05-10T13:07:11;1.80;;;1.40;;
11671;SDS011;5892;43.412;24.612;2023-05-10T13:09:38;1.53;;;1.40;;
11671;SDS011;5892;43.412;24.612;2023-05-10T13:12:06;2.70;;;1.80;;
11671;SDS011;5892;43.412;24.612;2023-05-10T13:14:33;7.10;;;2.60;;
11671;SDS011;5892;43.412;24.612;2023-05-10T13:16:59;2.20;;;1.77;;
11671;SDS011;5892;43.412;24.612;2023-05-10T13:19:28;3.53;;;2.20;;
11671;SDS011;5892;43.412;24.612;2023-05-10T13:21:55;2.77;;;1.57;;
11671;SDS011;5892;43.412;24.612;2023-05-10T13:24:21;10.30;;;3.60;;
11671;SDS011;5892;43.412;24.612;2023-05-10T13:26:48;1.80;;;1.40;;
11671;SDS011;5892;43.412;24.612;2023-05-10T13:29:15;5.47;;;1.37;;
11671;SDS011;5892;43.412;24.612;2023-05-10T13:31:43;4.67;;;2.57;;
11671;SDS011;5892;43.412;24.612;2023-05-10T13:34:10;2.20;;;1.33;;
11671;SDS011;5892;43.412;24.612;2023-05-10T13:36:38;2.70;;;1.90;;
11671;SDS011;5892;43.412;24.612;2023-05-10T13:39:05;1.57;;;1.40;;
11671;SDS011;5892;43.412;24.612;2023-05-10T13:41:32;2.47;;;1.60;;
11671;SDS011;5892;43.412;24.612;2023-05-10T13:43:59;2.77;;;1.73;;
11671;SDS011;5892;43.412;24.612;2023-05-10T13:46:26;1.83;;;1.57;;
11671;SDS011;5892;43.412;24.612;2023-05-10T13:48:53;2.70;;;1.50;;
11671;SDS011;5892;43.412;24.612;2023-05-10T13:51:20;2.57;;;2.10;;
11671;SDS011;5892;43.412;24.612;2023-05-10T13:53:48;3.30;;;1.50;;
11671;SDS011;5892;43.412;24.612;2023-05-10T13:56:15;5.43;;;1.53;;
11671;SDS011;5892;43.412;24.612;2023-05-10T13:58:42;1.00;;;1.00;;
11671;SDS011;5892;43.412;24.612;2023-05-10T14:01:09;2.40;;;1.40;;
11671;SDS011;5892;43.412;24.612;2023-05-10T14:03:37;2.00;;;1.60;;
11671;SDS011;5892;43.412;24.612;2023-05-10T14:06:04;2.03;;;1.50;;
11671;SDS011;5892;43.412;24.612;2023-05-10T14:08:32;1.70;;;1.60;;
11671;SDS011;5892;43.412;24.612;2023-05-10T14:11:01;2.03;;;1.67;;
11671;SDS011;5892;43.412;24.612;2023-05-10T14:13:28;3.83;;;1.93;;
11671;SDS011;5892;43.412;24.612;2023-05-10T14:15:55;4.47;;;2.63;;
11671;SDS011;5892;43.412;24.612;2023-05-10T14:18:22;5.40;;;2.40;;
11671;SDS011;5892;43.412;24.612;2023-05-10T14:20:49;2.50;;;1.83;;
11671;SDS011;5892;43.412;24.612;2023-05-10T14:23:15;2.17;;;1.50;;
11671;SDS011;5892;43.412;24.612;2023-05-10T14:25:44;8.10;;;2.10;;
11671;SDS011;5892;43.412;24.612;2023-05-10T14:28:12;3.00;;;1.53;;
11671;SDS011;5892;43.412;24.612;2023-05-10T14:30:39;2.87;;;1.60;;
11671;SDS011;5892;43.412;24.612;2023-05-10T14:33:09;1.60;;;1.43;;
11671;SDS011;5892;43.412;24.612;2023-05-10T14:35:36;2.50;;;1.70;;
11671;SDS011;5892;43.412;24.612;2023-05-10T14:38:03;2.00;;;1.60;;
11671;SDS011;5892;43.412;24.612;2023-05-10T14:40:30;3.57;;;2.07;;
11671;SDS011;5892;43.412;24.612;2023-05-10T14:42:57;1.70;;;1.57;;
11671;SDS011;5892;43.412;24.612;2023-05-10T14:45:25;1.93;;;1.67;;
11671;SDS011;5892;43.412;24.612;2023-05-10T14:47:52;3.40;;;1.60;;
11671;SDS011;5892;43.412;24.612;2023-05-10T14:50:19;2.13;;;1.47;;
11671;SDS011;5892;43.412;24.612;2023-05-10T14:52:46;1.97;;;1.53;;
11671;SDS011;5892;43.412;24.612;2023-05-10T14:55:13;1.93;;;1.47;;
11671;SDS011;5892;43.412;24.612;2023-05-10T14:57:41;1.63;;;1.30;;
11671;SDS011;5892;43.412;24.612;2023-05-10T15:00:09;1.73;;;1.63;;
11671;SDS011;5892;43.412;24.612;2023-05-10T15:02:38;1.57;;;1.47;;
11671;SDS011;5892;43.412;24.612;2023-05-10T15:05:05;1.90;;;1.67;;
11671;SDS011;5892;43.412;24.612;2023-05-10T15:07:33;1.60;;;1.50;;